Accueil
METAR-TAF:

METAR-TAF

Aéroports :

Missoula, Montana, États-Unis

latitude: 46-55-15N, longitude: 114-05-33W, altitude: 975 m

Observation

Le bulletin a été fait il y a 52 minutes, à 17:53 UTC
Vent calme
Température 18°C
Humidité 49%
Pression 1024 hPa
Visibilité: 16.1 km
Ciel clair

METAR: KMSO 261753Z 00000KT 10SM CLR 18/07 A3025 RMK AO2 SLP236 T01780067 10178 20067 58009

Heure: 12:45 (18:45 UTC)

Prévision

Le bulletin a été fait il y a 1 heure et 25 minutes, à 17:20 UTC
Prévision valable du 26 à 18 UTC au 27 à 18 UTC
Vent kt de nord
Visibilité: 10 km
Ciel clair
A partir de 26 à 2000 UTC
Vent 5 kt de ouest/nord-ouest
Visibilité: 10 km
Ciel clair
A partir de 27 à 0200 UTC
Vent 2 kt de direction variable
Visibilité: 10 km
Ciel clair

TAF: KMSO 261720Z 2618/2718 00000KT P6SM SKC FM262000 30005KT P6SM SKC FM270200 VRB02KT P6SM SKC

Observations et prévisions météorologiques de plus de 4000 aéroports (messages METAR et TAF).

Les stations disponibles sont représentées par des disques jaunes et rouges sur la carte.

Passer la souris dessus pour voir le nom de la station.

Cliquer dessus pour voir les observations et prévisions météorologiques.

Pour changer de carte: cliquez sur les boutons verts avec une croix noire pour zoomer, sur le bouton vert avec un tiret pour effectuer un zoom arrière, ou sur les flèches vertes pour les cartes adjacentes.


METAR-TAF: